Time;durP1;ratioP1;P1;durP2;ratioP2;P2;SDS_P1;SDS_P2;PMS_P1;PMS_P2;Temp;Humidity;BMP_temperature;BMP_pressure;BME280_temperature;BME280_humidity;BME280_pressure;Samples;Min_cycle;Max_cycle;Signal;HPM_P1;HPM_P2
2022/10/23 00:01:49;;;;;;;;;;;;;;;-144.99;100.00;52395.09;5063571;28;19986;-74
2022/10/23 00:04:16;;;;;;;;;;;;;;;-144.99;100.00;52401.22;5064701;28;19943;-75
2022/10/23 00:06:44;;;;;;;;;;;;;;;-144.99;100.00;52374.72;5064760;28;19977;-73
2022/10/23 00:09:12;;;;;;;;;;;;;;;-144.99;100.00;52427.72;5058676;28;19928;-74
2022/10/23 00:11:40;;;;;;;;;;;;;;;-144.99;100.00;52427.72;5067103;28;19941;-73
2022/10/23 00:14:07;;;;;;;;;;;;;;;-144.99;100.00;52437.91;5064175;28;20322;-73
2022/10/23 00:16:33;;;;;;;;;;;;;;;-144.99;100.00;52437.91;5066719;28;19960;-73
2022/10/23 00:19:00;;;;;;;;;;;;;;;-144.99;100.00;52399.19;5066152;28;19958;-73
2022/10/23 00:21:26;;;;;;;;;;;;;;;-144.99;100.00;52431.78;5067160;28;19939;-74
2022/10/23 00:23:54;;;;;;;;;;;;;;;-144.99;100.00;52382.88;5059368;28;20033;-75
2022/10/23 00:26:20;;;;;;;;;;;;;;;-144.99;100.00;52395.09;5065219;28;19963;-75
2022/10/23 00:28:48;;;;;;;;;;;;;;;-144.99;100.00;52431.78;5068141;28;19944;-75
2022/10/23 00:31:14;;;;;;;;;;;;;;;-144.99;100.00;52423.63;5069991;28;19953;-75
2022/10/23 00:33:41;;;;;;;;;;;;;;;-144.99;100.00;52403.25;5070616;28;20025;-75
2022/10/23 00:36:08;;;;;;;;;;;;;;;-144.99;100.00;52439.94;5073698;28;19968;-75
2022/10/23 00:38:35;;;;;;;;;;;;;;;-144.99;100.00;52395.09;5080977;28;19946;-74
2022/10/23 00:41:03;;;;;;;;;;;;;;;-144.99;100.00;52374.72;5090121;28;19968;-75
2022/10/23 00:43:30;;;;;;;;;;;;;;;-144.99;100.00;52431.78;5095837;28;19929;-75
2022/10/23 00:45:57;;;;;;;;;;;;;;;-144.99;100.00;52413.44;5078804;28;20054;-75
2022/10/23 00:48:24;;;;;;;;;;;;;;;-144.99;100.00;52401.22;5088743;28;19932;-75
2022/10/23 00:50:50;;;;;;;;;;;;;;;-144.99;100.00;52399.19;5097195;28;19935;-74
2022/10/23 00:53:18;;;;;;;;;;;;;;;-144.99;100.00;52395.09;5095513;28;20006;-75
2022/10/23 00:55:47;;;;;;;;;;;;;;;-144.99;100.00;52403.25;5092567;27;19979;-75
2022/10/23 00:58:15;;;;;;;;;;;;;;;-144.99;100.00;52419.56;5097022;28;19929;-75
2022/10/23 01:00:43;;;;;;;;;;;;;;;-144.99;100.00;52407.31;5096969;28;20094;-74
2022/10/23 01:03:09;;;;;;;;;;;;;;;-144.99;100.00;52421.59;5096768;28;20064;-75
2022/10/23 01:05:38;;;;;;;;;;;;;;;-144.99;100.00;52433.81;5092639;28;19939;-75
2022/10/23 01:08:10;;;;;;;;;;;;;;;-144.99;100.00;52395.09;5096905;28;19992;-77
2022/10/23 01:10:39;;;;;;;;;;;;;;;-144.99;100.00;52391.03;5097536;28;19951;-75
2022/10/23 01:13:08;;;;;;;;;;;;;;;-144.99;100.00;52415.47;5097326;28;19982;-77
2022/10/23 01:15:38;;;;;;;;;;;;;;;-144.99;100.00;52409.38;5078789;28;20009;-76
2022/10/23 01:18:07;;;;;;;;;;;;;;;-144.99;100.00;52431.78;5086063;28;19996;-76
2022/10/23 01:20:41;;;;;;;;;;;;;;;-144.99;100.00;52407.31;5089240;28;20013;-75
2022/10/23 01:23:14;;;;;;;;;;;;;;;-144.99;100.00;52431.78;5090580;28;20131;-75
2022/10/23 01:25:48;;;;;;;;;;;;;;;-144.99;100.00;52427.72;5086283;28;19980;-75
2022/10/23 01:28:20;;;;;;;;;;;;;;;-144.99;100.00;52441.97;5097102;28;19987;-75
2022/10/23 01:30:48;;;;;;;;;;;;;;;-144.99;100.00;52419.56;5097278;28;19937;-75
2022/10/23 01:33:17;;;;;;;;;;;;;;;-144.99;100.00;52439.94;5096910;28;19988;-75
2022/10/23 01:35:48;;;;;;;;;;;;;;;-144.99;100.00;52407.31;5095050;28;19997;-75
2022/10/23 01:38:17;;;;;;;;;;;;;;;-144.99;100.00;52397.13;5090445;28;19966;-76
2022/10/23 01:40:47;;;;;;;;;;;;;;;-144.99;100.00;52415.47;5095967;28;19980;-75
2022/10/23 01:43:18;;;;;;;;;;;;;;;-144.99;100.00;52419.56;5096184;28;19929;-75
2022/10/23 01:45:45;;;;;;;;;;;;;;;-144.99;100.00;52411.41;5084833;28;19939;-75
2022/10/23 01:48:15;;;;;;;;;;;;;;;-144.99;100.00;52423.63;5075113;28;19953;-74
2022/10/23 01:50:42;;;;;;;;;;;;;;;-144.99;100.00;52386.94;5065453;28;20461;-74
2022/10/23 01:53:08;;;;;;;;;;;;;;;-144.99;100.00;52448.09;5071182;28;19942;-74
2022/10/23 01:55:37;;;;;;;;;;;;;;;-144.99;100.00;52437.91;5072073;28;19975;-75
2022/10/23 01:58:06;;;;;;;;;;;;;;;-144.99;100.00;52427.72;5071843;28;20045;-76
2022/10/23 02:00:34;;;;;;;;;;;;;;;-144.99;100.00;52399.19;5081862;28;19939;-75
2022/10/23 02:03:03;;;;;;;;;;;;;;;-144.99;100.00;52437.91;5068546;28;19963;-75
2022/10/23 02:05:30;;;;;;;;;;;;;;;-144.99;100.00;52417.53;5063889;28;20434;-74
2022/10/23 02:07:57;;;;;;;;;;;;;;;-144.99;100.00;52399.19;5064162;28;19951;-75
2022/10/23 02:10:25;;;;;;;;;;;;;;;-144.99;100.00;52419.56;5068917;28;20438;-75
2022/10/23 02:12:57;;;;;;;;;;;;;;;-144.99;100.00;52399.19;5062116;28;20356;-75
2022/10/23 02:15:28;;;;;;;;;;;;;;;-144.99;100.00;52399.19;5069444;28;19958;-73
2022/10/23 02:18:02;;;;;;;;;;;;;;;-144.99;100.00;52386.94;5072495;28;19946;-74
2022/10/23 02:20:29;;;;;;;;;;;;;;;-144.99;100.00;52374.72;5074136;28;19938;-73
2022/10/23 02:22:59;;;;;;;;;;;;;;;-144.99;100.00;52391.03;5077569;28;19942;-73
2022/10/23 02:25:30;;;;;;;;;;;;;;;-144.99;100.00;52409.38;5078636;28;20197;-74
2022/10/23 02:27:59;;;;;;;;;;;;;;;-144.99;100.00;52378.78;5066757;28;19946;-74
2022/10/23 02:30:27;;;;;;;;;;;;;;;-144.99;100.00;52395.09;5070857;28;20281;-73
2022/10/23 02:32:54;;;;;;;;;;;;;;;-144.99;100.00;52403.25;5068359;28;19948;-74
2022/10/23 02:35:25;;;;;;;;;;;;;;;-144.99;100.00;52380.84;5069017;28;20428;-73
2022/10/23 02:37:52;;;;;;;;;;;;;;;-144.99;100.00;52427.72;5065045;28;19951;-74
2022/10/23 02:40:19;;;;;;;;;;;;;;;-144.99;100.00;52441.97;5067476;28;19980;-73
2022/10/23 02:42:51;;;;;;;;;;;;;;;-144.99;100.00;52423.63;5068428;28;19956;-74
2022/10/23 02:45:24;;;;;;;;;;;;;;;-144.99;100.00;52427.72;5066972;28;20030;-73
2022/10/23 02:47:55;;;;;;;;;;;;;;;-144.99;100.00;52423.63;5063537;28;20397;-74
2022/10/23 02:50:27;;;;;;;;;;;;;;;-144.99;100.00;52429.75;5067607;28;20015;-74
2022/10/23 02:53:00;;;;;;;;;;;;;;;-144.99;100.00;52415.47;5066404;28;19924;-74
2022/10/23 02:55:31;;;;;;;;;;;;;;;-144.99;100.00;52419.56;4719191;28;9999747;-73
2022/10/23 02:58:03;;;;;;;;;;;;;;;-144.99;100.00;52429.75;5064242;28;19939;-73
2022/10/23 03:00:31;;;;;;;;;;;;;;;-144.99;100.00;52431.78;5067694;28;19972;-72
2022/10/23 03:02:58;;;;;;;;;;;;;;;-144.99;100.00;52452.16;5063388;28;20434;-71
2022/10/23 03:05:29;;;;;;;;;;;;;;;-144.99;100.00;52395.09;5068502;28;19960;-72
2022/10/23 03:07:55;;;;;;;;;;;;;;;-144.99;100.00;52419.56;5067655;28;20435;-71
2022/10/23 03:10:22;;;;;;;;;;;;;;;-144.99;100.00;52439.94;5085749;22;19962;-79
2022/10/23 03:12:49;;;;;;;;;;;;;;;-144.99;100.00;52439.94;5106530;28;20264;-75
2022/10/23 03:15:15;;;;;;;;;;;;;;;-144.99;100.00;52423.63;5108594;28;19951;-76
2022/10/23 03:17:43;;;;;;;;;;;;;;;-144.99;100.00;52399.19;5102171;28;19944;-73
2022/10/23 03:20:10;;;;;;;;;;;;;;;-144.99;100.00;52439.94;5091008;28;19956;-74
2022/10/23 03:22:38;;;;;;;;;;;;;;;-144.99;100.00;52395.09;5091646;28;19943;-73
2022/10/23 03:25:04;;;;;;;;;;;;;;;-144.99;100.00;52419.56;5086499;28;20307;-73
2022/10/23 03:27:31;;;;;;;;;;;;;;;-144.99;100.00;52384.91;5097907;28;19941;-73
2022/10/23 03:29:57;;;;;;;;;;;;;;;-144.99;100.00;52409.38;5083128;28;19946;-73
2022/10/23 03:32:23;;;;;;;;;;;;;;;-144.99;100.00;52415.47;5104844;28;19948;-74
2022/10/23 03:34:50;;;;;;;;;;;;;;;-144.99;100.00;52425.66;5109058;28;20035;-73
2022/10/23 03:37:16;;;;;;;;;;;;;;;-144.99;100.00;52460.31;5108208;28;19943;-73
2022/10/23 03:39:47;;;;;;;;;;;;;;;-144.99;100.00;52407.31;5098041;28;19935;-74
2022/10/23 03:42:15;;;;;;;;;;;;;;;-144.99;100.00;52427.72;5103318;28;19940;-74
2022/10/23 03:44:42;;;;;;;;;;;;;;;-144.99;100.00;52419.56;5104692;28;19963;-75
2022/10/23 03:47:10;;;;;;;;;;;;;;;-144.99;100.00;52419.56;5104586;28;20014;-75
2022/10/23 03:49:37;;;;;;;;;;;;;;;-144.99;100.00;52403.25;5103827;28;19948;-75
2022/10/23 03:52:03;;;;;;;;;;;;;;;-144.99;100.00;52448.09;5104008;28;20051;-75
2022/10/23 03:54:30;;;;;;;;;;;;;;;-144.99;100.00;52431.78;5107849;28;20043;-74
2022/10/23 03:56:58;;;;;;;;;;;;;;;-144.99;100.00;52427.72;5103265;28;20007;-75
2022/10/23 03:59:24;;;;;;;;;;;;;;;-144.99;100.00;52407.31;5096499;28;19941;-74
2022/10/23 04:01:51;;;;;;;;;;;;;;;-144.99;100.00;52431.78;5094125;28;19955;-75
2022/10/23 04:04:17;;;;;;;;;;;;;;;-144.99;100.00;52423.63;5095310;28;19938;-75
2022/10/23 04:06:43;;;;;;;;;;;;;;;-144.99;100.00;52452.16;5094261;28;20023;-74
2022/10/23 04:09:10;;;;;;;;;;;;;;;-144.99;100.00;52411.41;5095481;28;20341;-73
2022/10/23 04:11:36;;;;;;;;;;;;;;;-144.99;100.00;52423.63;5081952;28;19956;-73
2022/10/23 04:14:04;;;;;;;;;;;;;;;-144.99;100.00;52456.25;5091442;28;19949;-73
2022/10/23 04:16:30;;;;;;;;;;;;;;;-144.99;100.00;52423.63;5095245;28;19957;-73
2022/10/23 04:18:57;;;;;;;;;;;;;;;-144.99;100.00;52425.66;5092793;28;19924;-73
2022/10/23 04:21:23;;;;;;;;;;;;;;;-144.99;100.00;52409.38;5089641;28;19955;-73
2022/10/23 04:23:49;;;;;;;;;;;;;;;-144.99;100.00;52431.78;5095597;28;20301;-74
2022/10/23 04:26:16;;;;;;;;;;;;;;;-144.99;100.00;52411.41;5101342;28;19968;-74
2022/10/23 04:28:42;;;;;;;;;;;;;;;-144.99;100.00;52488.84;5097119;28;19940;-74
2022/10/23 04:31:10;;;;;;;;;;;;;;;-144.99;100.00;52433.81;5101391;28;19965;-74
2022/10/23 04:33:36;;;;;;;;;;;;;;;-144.99;100.00;52452.16;5109867;28;19993;-74
2022/10/23 04:36:02;;;;;;;;;;;;;;;-144.99;100.00;52419.56;5105863;28;20067;-74
2022/10/23 04:38:29;;;;;;;;;;;;;;;-144.99;100.00;52417.53;5094747;28;20041;-73
2022/10/23 04:40:55;;;;;;;;;;;;;;;-144.99;100.00;52407.31;5096799;28;19924;-73
2022/10/23 04:43:22;;;;;;;;;;;;;;;-144.99;100.00;52386.94;5087981;28;19962;-74
2022/10/23 04:45:48;;;;;;;;;;;;;;;-144.99;100.00;52415.47;5092742;28;19947;-73
2022/10/23 04:48:16;;;;;;;;;;;;;;;-144.99;100.00;52435.88;5094077;28;20439;-73
2022/10/23 04:50:42;;;;;;;;;;;;;;;-144.99;100.00;52448.09;5094722;28;19924;-74
2022/10/23 04:53:09;;;;;;;;;;;;;;;-144.99;100.00;52448.09;5088840;28;20327;-74
2022/10/23 04:55:35;;;;;;;;;;;;;;;-144.99;100.00;52407.31;5093155;28;20048;-74
2022/10/23 04:58:01;;;;;;;;;;;;;;;-144.99;100.00;52407.31;5107244;28;20462;-77
2022/10/23 05:00:28;;;;;;;;;;;;;;;-144.99;100.00;52378.78;5109065;28;20514;-74
2022/10/23 05:02:54;;;;;;;;;;;;;;;-144.99;100.00;52413.44;5105146;28;19968;-76
2022/10/23 05:05:22;;;;;;;;;;;;;;;-144.99;100.00;52452.16;5107856;28;19940;-74
2022/10/23 05:07:48;;;;;;;;;;;;;;;-144.99;100.00;52437.91;5108948;28;20028;-75
2022/10/23 05:10:15;;;;;;;;;;;;;;;-144.99;100.00;52456.25;5108910;28;20047;-74
2022/10/23 05:12:41;;;;;;;;;;;;;;;-144.99;100.00;52407.31;5093432;28;19937;-76
2022/10/23 05:15:08;;;;;;;;;;;;;;;-144.99;100.00;52452.16;5105014;28;19938;-74
2022/10/23 05:17:35;;;;;;;;;;;;;;;-144.99;100.00;52415.47;5108393;28;19947;-74
2022/10/23 05:20:04;;;;;;;;;;;;;;;-144.99;100.00;52423.63;5109757;28;20057;-75
2022/10/23 05:22:36;;;;;;;;;;;;;;;-144.99;100.00;52419.56;5105062;28;19980;-74
2022/10/23 05:25:03;;;;;;;;;;;;;;;-144.99;100.00;52407.31;5109092;28;20016;-74
2022/10/23 05:27:29;;;;;;;;;;;;;;;-144.99;100.00;52431.78;5113840;28;20013;-75
2022/10/23 05:29:55;;;;;;;;;;;;;;;-144.99;100.00;52415.47;5101414;28;20098;-75
2022/10/23 05:32:22;;;;;;;;;;;;;;;-144.99;100.00;52395.09;5107961;28;19946;-74
2022/10/23 05:34:49;;;;;;;;;;;;;;;-144.99;100.00;52435.88;5106816;28;19942;-74
2022/10/23 05:37:16;;;;;;;;;;;;;;;-144.99;100.00;52425.66;5108389;28;19962;-74
2022/10/23 05:39:44;;;;;;;;;;;;;;;-144.99;100.00;52444.03;5110344;28;19958;-75
2022/10/23 05:42:11;;;;;;;;;;;;;;;-144.99;100.00;52431.78;5112278;28;19984;-74
2022/10/23 05:44:37;;;;;;;;;;;;;;;-144.99;100.00;52444.03;5096685;28;20025;-74
2022/10/23 05:47:03;;;;;;;;;;;;;;;-144.99;100.00;52399.19;5097422;28;19938;-74
2022/10/23 05:49:30;;;;;;;;;;;;;;;-144.99;100.00;52439.94;5098342;28;19938;-74
2022/10/23 05:51:56;;;;;;;;;;;;;;;-144.99;100.00;52421.59;5096944;28;19957;-73
2022/10/23 05:54:22;;;;;;;;;;;;;;;-144.99;100.00;52423.63;5094599;28;19938;-74
2022/10/23 05:56:50;;;;;;;;;;;;;;;-144.99;100.00;52423.63;5100374;28;20024;-74
2022/10/23 05:59:17;;;;;;;;;;;;;;;-144.99;100.00;52439.94;5107876;28;19984;-74
2022/10/23 06:01:43;;;;;;;;;;;;;;;-144.99;100.00;52474.59;5101179;28;19984;-74
2022/10/23 06:04:09;;;;;;;;;;;;;;;-144.99;100.00;52415.47;5090691;28;19933;-74
2022/10/23 06:06:36;;;;;;;;;;;;;;;-144.99;100.00;52423.63;5091104;28;19931;-73
2022/10/23 06:09:02;;;;;;;;;;;;;;;-144.99;100.00;52464.41;5087510;28;19945;-74
2022/10/23 06:11:29;;;;;;;;;;;;;;;-144.99;100.00;52464.41;5096202;28;19954;-73
2022/10/23 06:13:56;;;;;;;;;;;;;;;-144.99;100.00;52425.66;5095651;28;19943;-74
2022/10/23 06:16:25;;;;;;;;;;;;;;;-144.99;100.00;52464.41;5095237;28;19954;-78
2022/10/23 06:18:52;;;;;;;;;;;;;;;-144.99;100.00;52419.56;5091049;28;19961;-75
2022/10/23 06:21:19;;;;;;;;;;;;;;;-144.99;100.00;52444.03;5094042;28;19959;-77
2022/10/23 06:23:45;;;;;;;;;;;;;;;-144.99;100.00;52452.16;5092677;28;19940;-77
2022/10/23 06:26:12;;;;;;;;;;;;;;;-144.99;100.00;52431.78;5084144;28;20417;-77
2022/10/23 06:28:39;;;;;;;;;;;;;;;-144.99;100.00;52423.63;5092240;28;19935;-77
2022/10/23 06:31:08;;;;;;;;;;;;;;;-144.99;100.00;52407.31;5092889;28;20465;-77
2022/10/23 06:33:34;;;;;;;;;;;;;;;-144.99;100.00;52409.38;5093172;28;19934;-77
2022/10/23 06:36:01;;;;;;;;;;;;;;;-144.99;100.00;52423.63;5110230;28;19956;-77
2022/10/23 06:38:27;;;;;;;;;;;;;;;-144.99;100.00;52427.72;5111540;28;19987;-77
2022/10/23 06:40:54;;;;;;;;;;;;;;;-144.99;100.00;52425.66;5113093;28;20049;-76
2022/10/23 06:43:20;;;;;;;;;;;;;;;-144.99;100.00;52444.03;5091030;28;19960;-76
2022/10/23 06:45:47;;;;;;;;;;;;;;;-144.99;100.00;52407.31;5086293;28;20324;-76
2022/10/23 06:48:15;;;;;;;;;;;;;;;-144.99;100.00;52448.09;5083292;28;21363;-76
2022/10/23 06:50:42;;;;;;;;;;;;;;;-144.99;100.00;52427.72;5091706;28;20439;-77
2022/10/23 06:53:08;;;;;;;;;;;;;;;-144.99;100.00;52452.16;5087373;28;19967;-75
2022/10/23 06:55:35;;;;;;;;;;;;;;;-144.99;100.00;52435.88;5089430;28;19936;-74
2022/10/23 06:58:01;;;;;;;;;;;;;;;-144.99;100.00;52444.03;5088012;28;20337;-74
2022/10/23 07:00:27;;;;;;;;;;;;;;;-144.99;100.00;52415.47;5087058;28;20004;-74
2022/10/23 07:02:54;;;;;;;;;;;;;;;-144.99;100.00;52407.31;5085674;28;19942;-74
2022/10/23 07:05:21;;;;;;;;;;;;;;;-144.99;100.00;52395.09;5098160;28;19940;-74
2022/10/23 07:07:48;;;;;;;;;;;;;;;-144.99;100.00;52413.44;5103611;28;19947;-74
2022/10/23 07:10:14;;;;;;;;;;;;;;;-144.99;100.00;52370.63;5107857;28;19955;-74
2022/10/23 07:12:40;;;;;;;;;;;;;;;-144.99;100.00;52419.56;5099023;28;19934;-75
2022/10/23 07:15:07;;;;;;;;;;;;;;;-144.99;100.00;52391.03;5104808;28;20259;-75
2022/10/23 07:17:34;;;;;;;;;;;;;;;-144.99;100.00;52401.22;5100928;28;19955;-74
2022/10/23 07:20:00;;;;;;;;;;;;;;;-144.99;100.00;52374.72;5106784;28;19951;-75
2022/10/23 07:22:28;;;;;;;;;;;;;;;-144.99;100.00;52407.31;5095379;28;20305;-74
2022/10/23 07:24:54;;;;;;;;;;;;;;;-144.99;100.00;52399.19;5095866;28;20010;-75
2022/10/23 07:27:20;;;;;;;;;;;;;;;-144.99;100.00;52415.47;5101748;28;19938;-73
2022/10/23 07:29:49;;;;;;;;;;;;;;;-144.99;100.00;52395.09;5099106;28;19942;-74
2022/10/23 07:32:15;;;;;;;;;;;;;;;-144.99;100.00;52382.88;5090863;28;20415;-74
2022/10/23 07:34:42;;;;;;;;;;;;;;;-144.99;100.00;52372.69;5095885;28;20314;-75
2022/10/23 07:37:08;;;;;;;;;;;;;;;-144.99;100.00;52395.09;5099129;28;19960;-75
2022/10/23 07:39:36;;;;;;;;;;;;;;;-144.99;100.00;52382.88;5103605;28;19938;-74
2022/10/23 07:42:02;;;;;;;;;;;;;;;-144.99;100.00;52391.03;5106225;28;19974;-75
2022/10/23 07:44:29;;;;;;;;;;;;;;;-144.99;100.00;52411.41;5104842;28;19941;-73
2022/10/23 07:46:55;;;;;;;;;;;;;;;-144.99;100.00;52370.63;5103377;28;19938;-77
2022/10/23 07:49:21;;;;;;;;;;;;;;;-144.99;100.00;52354.34;5108585;28;19938;-75
2022/10/23 07:51:48;;;;;;;;;;;;;;;-144.99;100.00;52325.81;5110472;28;20020;-76
2022/10/23 07:54:14;;;;;;;;;;;;;;;-144.99;100.00;52352.28;5113149;28;19980;-73
2022/10/23 07:56:42;;;;;;;;;;;;;;;-144.99;100.00;52338.03;5111977;28;19994;-75
2022/10/23 07:59:10;;;;;;;;;;;;;;;-144.99;100.00;52366.56;5105827;28;19963;-76
2022/10/23 08:01:37;;;;;;;;;;;;;;;-144.99;100.00;52362.50;5109293;28;20026;-76
2022/10/23 08:04:05;;;;;;;;;;;;;;;-144.99;100.00;52358.41;5107783;28;19984;-75
2022/10/23 08:06:31;;;;;;;;;;;;;;;-144.99;100.00;52378.78;5097814;28;19960;-75
2022/10/23 08:08:57;;;;;;;;;;;;;;;-144.99;100.00;52395.09;5093665;28;20307;-73
2022/10/23 08:11:26;;;;;;;;;;;;;;;-144.99;100.00;52378.78;5084876;28;20556;-75
2022/10/23 08:13:55;;;;;;;;;;;;;;;-144.99;100.00;52370.63;5099265;28;20067;-75
2022/10/23 08:16:21;;;;;;;;;;;;;;;-144.99;99.29;52352.28;5098002;28;19944;-73
2022/10/23 08:18:48;;;;;;;;;;;;;;;-144.99;98.59;52378.78;5085555;28;19928;-73
2022/10/23 08:21:15;;;;;;;;;;;;;;;-144.99;98.75;52378.78;5088402;28;20060;-74
2022/10/23 08:23:41;;;;;;;;;;;;;;;-144.99;98.05;52380.84;5083823;28;19939;-73
2022/10/23 08:26:08;;;;;;;;;;;;;;;-144.99;97.72;52333.94;5094954;28;19942;-73
2022/10/23 08:28:34;;;;;;;;;;;;;;;-144.99;98.08;52352.28;5092307;28;19960;-73
2022/10/23 08:31:07;;;;;;;;;;;;;;;-144.99;98.09;52391.03;5083757;28;19961;-74
2022/10/23 08:33:34;;;;;;;;;;;;;;;-144.99;97.42;52362.50;5081624;28;19992;-73
2022/10/23 08:36:00;;;;;;;;;;;;;;;-144.99;97.26;52397.13;5071306;28;19958;-73
2022/10/23 08:38:26;;;;;;;;;;;;;;;-144.99;97.67;52374.72;5076823;28;19960;-73
2022/10/23 08:40:53;;;;;;;;;;;;;;;-144.99;98.34;52374.72;5085695;28;19925;-74
2022/10/23 08:43:21;;;;;;;;;;;;;;;-144.99;98.01;52352.28;5085410;28;19942;-73
2022/10/23 08:45:50;;;;;;;;;;;;;;;-144.99;98.76;52382.88;5092400;28;19942;-73
2022/10/23 08:48:22;;;;;;;;;;;;;;;-144.99;99.56;52333.94;5095445;28;19955;-74
2022/10/23 08:50:50;;;;;;;;;;;;;;;-144.99;99.99;52358.41;5092446;28;19963;-74
2022/10/23 08:53:20;;;;;;;;;;;;;;;-144.99;98.84;52407.31;5082991;28;19947;-74
2022/10/23 08:55:52;;;;;;;;;;;;;;;-144.99;98.47;52386.94;5087371;28;19963;-75
2022/10/23 08:58:22;;;;;;;;;;;;;;;-144.99;98.26;52348.22;5098046;28;19959;-74
2022/10/23 09:00:49;;;;;;;;;;;;;;;-144.99;97.18;52374.72;5105016;28;20166;-75
2022/10/23 09:03:16;;;;;;;;;;;;;;;-144.99;96.96;52368.59;5098518;28;20491;-73
2022/10/23 09:05:50;;;;;;;;;;;;;;;-144.99;96.94;52362.50;5094476;28;19948;-72
2022/10/23 09:08:24;;;;;;;;;;;;;;;-144.99;97.22;52374.72;5099786;28;19938;-73
2022/10/23 09:11:03;;;;;;;;;;;;;;;-144.99;97.90;52362.50;5097299;28;19969;-74
2022/10/23 09:13:50;;;;;;;;;;;;;;;-144.99;98.06;52384.91;5091148;28;19942;-74
2022/10/23 09:16:23;;;;;;;;;;;;;;;-144.99;97.17;52378.78;5112404;22;19966;-77
2022/10/23 09:18:50;;;;;;;;;;;;;;;-144.99;97.57;52362.50;5088609;28;19955;-78
2022/10/23 09:21:19;;;;;;;;;;;;;;;-144.99;97.42;52370.63;5091035;28;19947;-79
2022/10/23 09:23:46;;;;;;;;;;;;;;;-144.99;96.45;52354.34;5083008;28;19941;-77
2022/10/23 09:26:14;;;;;;;;;;;;;;;-144.99;96.37;52376.75;5079180;28;19960;-77
2022/10/23 09:28:45;;;;;;;;;;;;;;;-144.99;96.75;52374.72;5070368;28;20514;-78
2022/10/23 09:31:12;;;;;;;;;;;;;;;-144.99;96.99;52382.88;5071536;28;20375;-75
2022/10/23 09:33:39;;;;;;;;;;;;;;;-144.99;96.59;52321.72;5080434;28;20369;-76
2022/10/23 09:36:06;;;;;;;;;;;;;;;-144.99;96.03;52333.94;5077119;28;20233;-76
2022/10/23 09:38:35;;;;;;;;;;;;;;;-144.99;95.08;52333.94;5056317;28;19968;-78
2022/10/23 09:41:03;;;;;;;;;;;;;;;-144.99;93.21;52338.03;5070577;28;19946;-79
2022/10/23 09:43:29;;;;;;;;;;;;;;;-144.99;92.94;52297.25;5069515;28;19947;-77
2022/10/23 09:45:59;;;;;;;;;;;;;;;-144.99;92.43;52354.34;5062231;28;20525;-74
2022/10/23 09:48:26;;;;;;;;;;;;;;;-144.99;91.59;52380.84;5076007;28;19970;-76
2022/10/23 09:50:54;;;;;;;;;;;;;;;-144.99;92.72;52342.09;5069691;28;19940;-77
2022/10/23 09:53:25;;;;;;;;;;;;;;;-144.99;92.73;52329.88;5066887;28;19956;-79
2022/10/23 09:55:54;;;;;;;;;;;;;;;-144.99;92.49;52329.88;5067568;28;20021;-78
2022/10/23 09:58:24;;;;;;;;;;;;;;;-144.99;93.09;52338.03;5073771;28;20414;-76
2022/10/23 10:00:50;;;;;;;;;;;;;;;-144.99;92.89;52360.44;5069497;28;19962;-75
2022/10/23 10:03:19;;;;;;;;;;;;;;;-144.99;92.49;52360.44;5069132;28;19962;-78
2022/10/23 10:05:53;;;;;;;;;;;;;;;-144.99;91.03;52342.09;5074527;28;20437;-74
2022/10/23 10:08:22;;;;;;;;;;;;;;;-144.99;88.81;52362.50;5068715;28;19944;-78
2022/10/23 10:10:51;;;;;;;;;;;;;;;-144.99;87.26;52333.94;5068078;28;19946;-78
2022/10/23 10:13:30;;;;;;;;;;;;;;;-144.99;85.99;52346.19;5059595;28;19974;-80
2022/10/23 10:15:58;;;;;;;;;;;;;;;-144.99;84.79;52305.41;5068245;28;20452;-76
2022/10/23 10:18:28;;;;;;;;;;;;;;;-144.99;83.98;52333.94;5065398;28;20424;-76
2022/10/23 10:20:59;;;;;;;;;;;;;;;-144.99;82.74;52276.88;5062128;28;19952;-76
2022/10/23 10:23:29;;;;;;;;;;;;;;;-144.99;82.55;52283.00;5067197;28;20065;-77
2022/10/23 10:26:00;;;;;;;;;;;;;;;-144.99;82.79;52327.84;5068394;28;20081;-76
2022/10/23 10:28:42;;;;;;;;;;;;;;;-144.99;83.60;52317.66;5065230;28;20049;-77
2022/10/23 10:31:14;;;;;;;;;;;;;;;-144.99;83.93;52354.34;5066707;28;19942;-76
2022/10/23 10:33:48;;;;;;;;;;;;;;;-144.99;84.24;52317.66;5065840;28;20524;-73
2022/10/23 10:36:23;;;;;;;;;;;;;;;-144.99;84.56;52338.03;5069326;28;20055;-78
2022/10/23 10:38:51;;;;;;;;;;;;;;;-144.99;85.31;52338.03;5063727;28;19952;-75
2022/10/23 10:41:35;;;;;;;;;;;;;;;-144.99;86.03;52333.94;5072459;28;19945;-75
2022/10/23 10:44:13;;;;;;;;;;;;;;;-144.99;87.37;52350.25;5057215;28;20042;-76
2022/10/23 10:46:43;;;;;;;;;;;;;;;-144.99;86.92;52354.34;5067342;28;19952;-77
2022/10/23 10:49:11;;;;;;;;;;;;;;;-144.99;84.63;52309.50;5066925;28;19942;-76
2022/10/23 10:51:43;;;;;;;;;;;;;;;-144.99;81.94;52305.41;5068411;28;19935;-75
2022/10/23 10:54:20;;;;;;;;;;;;;;;-144.99;81.03;52317.66;5066814;28;19947;-77
2022/10/23 10:56:47;;;;;;;;;;;;;;;-144.99;78.64;52293.19;5066286;28;20429;-79
2022/10/23 10:59:16;;;;;;;;;;;;;;;-144.99;77.45;52256.50;5067110;28;19963;-74
2022/10/23 11:01:46;;;;;;;;;;;;;;;-144.99;77.00;52270.78;5069638;28;19991;-78
2022/10/23 11:04:14;;;;;;;;;;;;;;;-144.99;75.54;52276.88;5066976;28;20356;-77
2022/10/23 11:06:41;;;;;;;;;;;;;;;-144.99;74.33;52260.56;5067202;28;19955;-78
2022/10/23 11:09:14;;;;;;;;;;;;;;;-144.99;71.97;52236.13;5067124;28;19947;-76
2022/10/23 11:11:40;;;;;;;;;;;;;;;-144.99;69.93;52254.47;5069955;28;19935;-78
2022/10/23 11:14:13;;;;;;;;;;;;;;;-144.99;67.70;52223.88;5065350;28;20483;-78
2022/10/23 11:16:45;;;;;;;;;;;;;;;-144.99;65.54;52232.03;5065938;28;20053;-78
2022/10/23 11:19:13;;;;;;;;;;;;;;;-144.99;65.24;52254.47;5067106;28;19958;-74
2022/10/23 11:21:43;;;;;;;;;;;;;;;-144.99;65.05;52244.28;5067248;28;20056;-77
2022/10/23 11:24:32;;;;;;;;;;;;;;;-144.99;65.86;52276.88;5070243;28;19946;-75
2022/10/23 11:27:06;;;;;;;;;;;;;;;-144.99;67.30;52242.22;5059908;28;19960;-81
2022/10/23 11:29:46;;;;;;;;;;;;;;;-144.99;68.54;52293.19;5054416;28;20394;-77
2022/10/23 11:32:34;;;;;;;;;;;;;;;-144.99;68.23;52256.50;5060834;28;19968;-78
2022/10/23 11:35:07;;;;;;;;;;;;;;;-144.99;68.36;52285.03;5062016;28;20363;-78
2022/10/23 11:37:34;;;;;;;;;;;;;;;-144.99;66.31;52260.56;5059123;28;19958;-79
2022/10/23 11:40:02;;;;;;;;;;;;;;;-144.99;64.25;52209.63;5065094;28;20463;-77
2022/10/23 11:42:31;;;;;;;;;;;;;;;-144.99;63.53;52211.66;5065032;28;19940;-77
2022/10/23 11:44:57;;;;;;;;;;;;;;;-144.99;60.59;52199.44;5072208;28;20042;-81
2022/10/23 11:47:34;;;;;;;;;;;;;;;-144.99;58.24;52150.53;5081004;28;19970;-83
2022/10/23 11:50:25;;;;;;;;;;;;;;;-144.99;55.45;52093.44;5091564;28;19947;-77
2022/10/23 11:52:53;;;;;;;;;;;;;;;-144.99;51.85;52138.28;5068753;28;20418;-78
2022/10/23 11:55:21;;;;;;;;;;;;;;;-144.99;51.23;52154.59;5067267;28;20380;-79
2022/10/23 11:58:05;;;;;;;;;;;;;;;-144.99;50.59;52191.28;5069015;28;19972;-77
2022/10/23 12:00:32;;;;;;;;;;;;;;;-144.99;51.24;52172.94;5065332;28;20286;-76
2022/10/23 12:02:59;;;;;;;;;;;;;;;-144.99;51.50;52170.91;5070261;28;20047;-75
2022/10/23 12:05:30;;;;;;;;;;;;;;;-144.99;52.14;52191.28;5068391;28;19942;-76
2022/10/23 12:07:58;;;;;;;;;;;;;;;-144.99;51.26;52174.97;5066016;28;19941;-77
2022/10/23 12:10:27;;;;;;;;;;;;;;;-144.99;51.43;52166.81;5066069;28;19962;-77
2022/10/23 12:12:57;;;;;;;;;;;;;;;-144.99;51.58;52187.19;5062028;28;19943;-75
2022/10/23 12:15:24;;;;;;;;;;;;;;;-144.99;51.01;52193.31;5056200;28;19944;-76
2022/10/23 12:17:52;;;;;;;;;;;;;;;-144.99;51.19;52191.28;5070204;28;19986;-76
2022/10/23 12:20:38;;;;;;;;;;;;;;;-144.99;51.92;52199.44;5066249;28;20443;-77
2022/10/23 12:23:23;;;;;;;;;;;;;;;-144.99;51.44;52181.09;5064898;28;19939;-74
2022/10/23 12:25:55;;;;;;;;;;;;;;;-144.99;51.30;52150.53;5062146;28;19962;-82
2022/10/23 12:28:28;;;;;;;;;;;;;;;-144.99;49.92;52146.44;5066755;28;20309;-78